createdAt,value
2022-10-24T12:49:53.024Z,15.24841309
2022-10-24T12:50:53.732Z,15.24841309
2022-10-24T12:51:54.475Z,15.26855469
2022-10-24T12:52:55.020Z,15.27862549
2022-10-24T12:53:56.290Z,15.29876709
2022-10-24T12:54:56.972Z,15.29876709
2022-10-24T12:55:57.737Z,15.29876709
2022-10-24T12:56:59.364Z,15.30883789
2022-10-24T12:58:00.103Z,15.32897949
2022-10-24T12:59:00.653Z,15.34912109
2022-10-24T13:00:01.477Z,15.34912109
2022-10-24T13:01:02.002Z,15.3793335
2022-10-24T13:02:03.786Z,15.3994751
2022-10-24T13:03:03.424Z,15.3994751
2022-10-24T13:04:04.023Z,15.4095459
2022-10-24T13:05:04.624Z,15.3793335
2022-10-24T13:06:05.243Z,15.33905029
2022-10-24T13:07:06.831Z,15.33905029
2022-10-24T13:08:07.405Z,15.30883789
2022-10-24T13:09:08.064Z,15.29876709
2022-10-24T13:10:08.605Z,15.30883789
2022-10-24T13:11:09.190Z,15.30883789
2022-10-24T13:12:10.142Z,15.29876709
2022-10-24T13:13:10.717Z,15.27862549
2022-10-24T13:14:11.343Z,15.24841309
2022-10-24T13:15:11.876Z,15.22827148
2022-10-24T13:16:12.446Z,15.19805908
2022-10-24T13:17:13.989Z,15.19805908
2022-10-24T13:18:15.589Z,15.19805908
2022-10-24T13:19:16.245Z,15.21820068
2022-10-24T13:20:17.222Z,15.24841309
2022-10-24T13:21:48.042Z,15.27862549
2022-10-24T13:22:48.878Z,15.30883789
2022-10-24T13:23:50.663Z,15.32897949
2022-10-24T13:24:51.417Z,15.33905029
2022-10-24T13:25:51.921Z,15.34912109
2022-10-24T13:26:53.053Z,15.3692627
2022-10-24T13:27:53.769Z,15.3692627
2022-10-24T13:28:54.466Z,15.3793335
2022-10-24T13:30:55.761Z,15.33905029
2022-10-24T13:31:56.409Z,15.34912109
2022-10-24T13:32:57.064Z,15.34912109
2022-10-24T13:33:57.845Z,15.34912109
2022-10-24T13:34:58.746Z,15.3692627
2022-10-24T13:35:59.278Z,15.3692627
2022-10-24T13:37:00.460Z,15.3994751
2022-10-24T13:38:03.741Z,15.3994751
2022-10-24T13:39:01.859Z,15.4397583
2022-10-24T13:40:02.630Z,15.4397583
2022-10-24T13:41:03.170Z,15.4397583
2022-10-24T13:42:03.645Z,15.4598999
2022-10-24T13:43:07.731Z,15.4598999
2022-10-24T13:44:05.583Z,15.4800415
2022-10-24T13:45:06.171Z,15.4800415
2022-10-24T13:46:10.720Z,15.4901123
2022-10-24T13:47:08.010Z,15.4800415
2022-10-24T13:48:08.506Z,15.51025391
2022-10-24T13:49:09.220Z,15.53039551
2022-10-24T13:50:10.010Z,15.56060791
2022-10-24T13:51:10.692Z,15.53039551
2022-10-24T13:52:11.230Z,15.52032471
2022-10-24T13:53:12.845Z,15.53039551
2022-10-24T13:54:13.358Z,15.53039551
2022-10-24T13:55:13.955Z,15.55053711
2022-10-24T13:56:14.576Z,15.53039551
2022-10-24T13:57:15.964Z,15.53039551
2022-10-24T13:58:47.155Z,15.52032471
2022-10-24T13:59:47.816Z,15.51025391
2022-10-24T14:00:48.442Z,15.52032471
2022-10-24T14:01:49.008Z,15.51025391
2022-10-24T14:02:50.026Z,15.51025391
2022-10-24T14:03:50.072Z,15.52032471
2022-10-24T14:04:54.726Z,15.51025391
2022-10-24T14:05:51.461Z,15.51025391
2022-10-24T14:06:53.083Z,15.51025391
2022-10-24T14:07:53.700Z,15.52032471
2022-10-24T14:09:05.512Z,15.53039551
2022-10-24T14:10:56.024Z,15.56060791
2022-10-24T14:11:56.706Z,15.58074951
2022-10-24T14:12:57.309Z,15.59082031
2022-10-24T14:14:00.309Z,15.59082031
2022-10-24T14:14:58.409Z,15.60089111
2022-10-24T14:15:58.995Z,15.62103271
2022-10-24T14:17:00.659Z,15.64117432
2022-10-24T14:18:01.517Z,15.66131592
2022-10-24T14:19:02.117Z,15.66131592
2022-10-24T14:20:02.602Z,15.68145752
2022-10-24T14:21:03.141Z,15.67138672
2022-10-24T14:22:04.592Z,15.67138672
2022-10-24T14:23:05.204Z,15.68145752
2022-10-24T14:24:06.257Z,15.67138672
2022-10-24T14:25:06.830Z,15.67138672
2022-10-24T14:26:07.339Z,15.68145752
2022-10-24T14:27:08.604Z,15.68145752
2022-10-24T14:28:09.248Z,15.67138672
2022-10-24T14:29:10.167Z,15.66131592
2022-10-24T14:30:10.861Z,15.64117432
2022-10-24T14:31:11.404Z,15.62103271
2022-10-24T14:32:11.915Z,15.60089111
2022-10-24T14:33:12.595Z,15.59082031
2022-10-24T14:34:13.958Z,15.60089111
2022-10-24T14:35:14.900Z,15.58074951
2022-10-24T14:36:15.517Z,15.60089111
2022-10-24T14:37:47.601Z,15.60089111
2022-10-24T14:38:47.856Z,15.60089111
2022-10-24T14:39:48.534Z,15.60089111
2022-10-24T14:40:53.951Z,15.60089111
2022-10-24T14:41:49.831Z,15.60089111
2022-10-24T14:44:53.807Z,15.62103271
2022-10-24T14:45:52.255Z,15.64117432
2022-10-24T14:46:52.997Z,15.64117432
2022-10-24T14:47:54.324Z,15.64117432
2022-10-24T14:48:54.865Z,15.66131592
2022-10-24T14:49:55.429Z,15.68145752
2022-10-24T14:50:56.030Z,15.71166992
2022-10-24T14:51:56.602Z,15.74188232
2022-10-24T14:52:58.048Z,15.76202393
2022-10-24T14:53:58.647Z,15.78216553
2022-10-24T14:54:59.134Z,15.80230713
2022-10-24T14:55:59.814Z,15.80230713
2022-10-24T14:57:01.547Z,15.86273193
2022-10-24T14:58:03.033Z,15.88287354
2022-10-24T14:59:03.626Z,15.88287354
2022-10-24T15:00:04.801Z,15.88287354
2022-10-24T15:01:05.299Z,15.89294434
2022-10-24T15:02:05.979Z,15.92315674
2022-10-24T15:03:06.658Z,15.98358154
2022-10-24T15:04:07.268Z,16.01379395
2022-10-24T15:05:07.804Z,16.03393555
2022-10-24T15:06:08.483Z,16.04400635
2022-10-24T15:07:10.195Z,16.04400635
2022-10-24T15:08:22.059Z,16.03393555
2022-10-24T15:09:11.762Z,16.01379395
2022-10-24T15:10:13.264Z,16.01379395
2022-10-24T15:11:12.761Z,15.96343994
2022-10-24T15:12:13.802Z,15.98358154
2022-10-24T15:13:14.585Z,15.96343994
2022-10-24T15:14:15.213Z,15.93322754
2022-10-24T15:15:46.241Z,15.93322754
2022-10-24T15:16:47.508Z,15.91308594
2022-10-24T15:17:48.875Z,15.89294434
2022-10-24T15:18:49.387Z,15.91308594
2022-10-24T15:19:49.865Z,15.91308594
2022-10-24T15:20:50.709Z,15.91308594
2022-10-24T15:21:51.237Z,15.91308594
2022-10-24T15:22:52.560Z,15.89294434
2022-10-24T15:23:54.041Z,15.89294434
2022-10-24T15:24:54.559Z,15.88287354
2022-10-24T15:25:55.137Z,15.89294434
2022-10-24T15:26:55.680Z,15.86273193
2022-10-24T15:27:56.734Z,15.84259033
2022-10-24T15:28:57.324Z,15.80230713
2022-10-24T15:29:57.928Z,15.77209473
2022-10-24T15:30:58.441Z,15.77209473
2022-10-24T15:31:59.017Z,15.78216553
2022-10-24T15:32:59.531Z,15.84259033
2022-10-24T15:34:00.036Z,15.86273193
2022-10-24T15:35:00.621Z,15.86273193
2022-10-24T15:36:01.176Z,15.86273193
2022-10-24T15:37:01.736Z,15.88287354
2022-10-24T15:38:02.677Z,15.89294434
2022-10-24T15:39:03.110Z,15.91308594
2022-10-24T15:40:03.625Z,15.95336914
2022-10-24T15:41:04.410Z,15.98358154
2022-10-24T15:42:04.897Z,15.99365234
2022-10-24T15:43:06.258Z,16.03393555
2022-10-24T15:44:06.679Z,16.03393555
2022-10-24T15:45:07.125Z,16.03393555
2022-10-24T15:46:07.648Z,16.03393555
2022-10-24T15:47:08.284Z,16.01379395
2022-10-24T15:48:09.674Z,15.99365234
2022-10-24T15:49:10.145Z,15.98358154
2022-10-24T15:50:10.617Z,15.96343994
2022-10-24T15:51:11.143Z,15.93322754
2022-10-24T15:52:11.800Z,15.92315674
2022-10-24T15:53:12.997Z,15.91308594
2022-10-24T15:54:13.509Z,15.91308594
2022-10-24T15:55:14.056Z,15.88287354
2022-10-24T15:56:14.523Z,15.84259033
2022-10-24T15:57:46.016Z,15.81237793
2022-10-24T15:59:47.174Z,15.77209473
2022-10-24T16:00:47.707Z,15.74188232
2022-10-24T16:01:48.237Z,15.71166992
2022-10-24T16:02:48.712Z,15.68145752
2022-10-24T16:03:49.137Z,15.64117432
2022-10-24T16:04:49.630Z,15.62103271
2022-10-24T16:05:50.395Z,15.58074951
2022-10-24T16:06:50.968Z,15.56060791
2022-10-24T16:07:51.992Z,15.53039551
2022-10-24T16:08:52.443Z,15.51025391
2022-10-24T16:09:53.051Z,15.4901123
2022-10-24T16:10:53.524Z,15.4598999
2022-10-24T16:11:53.962Z,15.4296875
2022-10-24T16:12:55.475Z,15.4095459
2022-10-24T16:13:55.884Z,15.4095459
2022-10-24T16:14:56.340Z,15.3994751
2022-10-24T16:15:56.804Z,15.3793335
2022-10-24T16:16:57.222Z,15.3994751
2022-10-24T16:17:58.476Z,15.3692627
2022-10-24T16:18:58.896Z,15.3793335
2022-10-24T16:19:59.425Z,15.3793335
2022-10-24T16:20:59.803Z,15.3692627
2022-10-24T16:22:00.202Z,15.3692627
2022-10-24T16:23:01.309Z,15.3692627
2022-10-24T16:24:01.647Z,15.3994751
2022-10-24T16:25:02.127Z,15.3994751
2022-10-24T16:26:02.619Z,15.4296875
2022-10-24T16:27:03.080Z,15.4296875
2022-10-24T16:28:04.233Z,15.4095459
2022-10-24T16:29:05.177Z,15.4095459
2022-10-24T16:30:05.640Z,15.3994751
2022-10-24T16:31:06.132Z,15.34912109
2022-10-24T16:32:06.642Z,15.32897949
2022-10-24T16:33:07.133Z,15.26855469
2022-10-24T16:34:07.641Z,15.24841309
2022-10-24T16:35:08.106Z,15.21820068
2022-10-24T16:36:08.586Z,15.21820068
2022-10-24T16:37:09.054Z,15.21820068
2022-10-24T16:38:10.541Z,15.17791748
2022-10-24T16:39:11.179Z,15.06713867
2022-10-24T16:40:11.780Z,15.00671387
2022-10-24T16:41:12.292Z,14.99664307
2022-10-24T16:42:12.800Z,14.97650146
2022-10-24T16:43:13.293Z,14.99664307
2022-10-24T16:44:13.815Z,15.00671387
2022-10-24T16:45:44.992Z,15.02685547
2022-10-24T16:46:45.478Z,15.02685547
2022-10-24T16:47:45.957Z,15.03692627
2022-10-24T16:48:47.301Z,15.04699707
2022-10-24T16:49:47.806Z,15.08728027
2022-10-24T16:50:48.264Z,15.10742188
2022-10-24T16:51:48.704Z,15.08728027
2022-10-24T16:52:49.262Z,15.11749268
2022-10-24T16:53:50.506Z,15.12756348
2022-10-24T16:54:51.048Z,15.10742188
2022-10-24T16:55:51.532Z,15.10742188
2022-10-24T16:56:53.851Z,15.10742188
2022-10-24T16:57:52.445Z,15.06713867
2022-10-24T16:58:53.722Z,15.06713867
2022-10-24T16:59:54.145Z,15.08728027
2022-10-24T17:00:54.663Z,15.08728027
2022-10-24T17:01:55.187Z,15.06713867
2022-10-24T17:02:55.500Z,15.03692627
2022-10-24T17:03:56.763Z,15.00671387
2022-10-24T17:04:57.330Z,14.99664307
2022-10-24T17:05:57.975Z,14.99664307
2022-10-24T17:06:58.582Z,15.00671387
2022-10-24T17:08:00.220Z,14.99664307
2022-10-24T17:09:00.892Z,14.96643066
2022-10-24T17:10:01.532Z,14.94628906
2022-10-24T17:11:02.773Z,14.93621826
2022-10-24T17:12:03.266Z,14.93621826
2022-10-24T17:13:03.733Z,14.92614746
2022-10-24T17:14:04.477Z,14.92614746
2022-10-24T17:15:04.849Z,14.89593506
2022-10-24T17:16:05.308Z,14.86572266
2022-10-24T17:17:05.792Z,14.84558105
2022-10-24T17:18:06.154Z,14.84558105
2022-10-24T17:19:15.724Z,14.82543945
2022-10-24T17:20:07.364Z,14.82543945
2022-10-24T17:21:07.842Z,14.86572266
2022-10-24T17:22:08.270Z,14.85565186
2022-10-24T17:23:08.773Z,14.85565186
2022-10-24T17:24:09.206Z,14.82543945
2022-10-24T17:25:09.647Z,14.79522705
2022-10-24T17:26:10.248Z,14.79522705
2022-10-24T17:27:10.806Z,14.81536865
2022-10-24T17:28:11.999Z,14.79522705
2022-10-24T17:29:12.721Z,14.79522705
2022-10-24T17:30:13.266Z,14.77508545
2022-10-24T17:31:44.481Z,14.77508545
2022-10-24T17:32:45.275Z,14.75494385
2022-10-24T17:33:45.647Z,14.77508545
2022-10-24T17:34:46.107Z,14.77508545
2022-10-24T17:35:46.551Z,14.77508545
2022-10-24T17:36:46.991Z,14.79522705
2022-10-24T17:37:47.431Z,14.81536865
2022-10-24T17:38:48.701Z,14.79522705
2022-10-24T17:39:49.193Z,14.78515625
2022-10-24T17:40:49.769Z,14.78515625
2022-10-24T17:41:50.523Z,14.78515625
2022-10-24T17:42:50.936Z,14.77508545
2022-10-24T17:43:51.362Z,14.77508545
2022-10-24T17:44:51.802Z,14.75494385
2022-10-24T17:45:52.283Z,14.75494385
2022-10-24T17:46:55.969Z,14.72473145
2022-10-24T17:47:53.244Z,14.74487305
2022-10-24T17:48:54.207Z,14.72473145
2022-10-24T17:49:54.736Z,14.72473145
2022-10-24T17:50:55.078Z,14.72473145
2022-10-24T17:51:55.522Z,14.67437744
2022-10-24T17:52:56.702Z,14.66430664
2022-10-24T17:53:57.987Z,14.64416504
2022-10-24T17:54:58.482Z,14.64416504
2022-10-24T17:55:59.076Z,14.63409424
2022-10-24T17:56:59.535Z,14.63409424
2022-10-24T17:58:00.255Z,14.60388184
2022-10-24T17:59:01.714Z,14.60388184
2022-10-24T18:00:02.307Z,14.59381104
2022-10-24T18:01:02.969Z,14.60388184
2022-10-24T18:02:03.419Z,14.63409424
2022-10-24T18:03:03.836Z,14.60388184
2022-10-24T18:04:04.240Z,14.57366943
2022-10-24T18:05:04.663Z,14.56359863
2022-10-24T18:06:05.135Z,14.54345703
2022-10-24T18:07:05.570Z,14.53338623
2022-10-24T18:08:06.098Z,14.53338623
2022-10-24T18:09:07.247Z,14.52331543
2022-10-24T18:10:07.720Z,14.53338623
2022-10-24T18:11:08.298Z,14.54345703
2022-10-24T18:12:08.795Z,14.56359863
2022-10-24T18:13:09.344Z,14.54345703
2022-10-24T18:14:09.812Z,14.53338623
2022-10-24T18:15:10.329Z,14.53338623
2022-10-24T18:16:10.785Z,14.54345703
2022-10-24T18:17:11.319Z,14.56359863
2022-10-24T18:18:12.475Z,14.56359863
2022-10-24T18:19:13.978Z,14.54345703
2022-10-24T18:20:44.731Z,14.54345703
2022-10-24T18:21:45.225Z,14.53338623
2022-10-24T18:22:46.170Z,14.54345703
2022-10-24T18:23:46.268Z,14.53338623
2022-10-24T18:24:46.721Z,14.52331543
2022-10-24T18:25:47.241Z,14.52331543
2022-10-24T18:26:47.702Z,14.52331543
2022-10-24T18:27:48.203Z,14.52331543
2022-10-24T18:28:49.485Z,14.52331543
2022-10-24T18:29:49.909Z,14.52331543
2022-10-24T18:30:50.557Z,14.54345703
2022-10-24T18:31:50.995Z,14.54345703
2022-10-24T18:32:51.471Z,14.53338623
2022-10-24T18:33:52.525Z,14.52331543
2022-10-24T18:34:52.972Z,14.52331543
2022-10-24T18:35:53.446Z,14.49310303
2022-10-24T18:36:53.932Z,14.53338623
2022-10-24T18:37:54.359Z,14.52331543
2022-10-24T18:38:54.800Z,14.53338623
2022-10-24T18:39:55.305Z,14.54345703
2022-10-24T18:40:55.932Z,14.53338623
2022-10-24T18:41:57.338Z,14.52331543
2022-10-24T18:42:57.882Z,14.54345703
2022-10-24T18:43:58.411Z,14.54345703
2022-10-24T18:44:58.888Z,14.53338623
2022-10-24T18:45:59.404Z,14.53338623
2022-10-24T18:46:59.817Z,14.52331543
2022-10-24T18:48:00.272Z,14.54345703
2022-10-24T18:49:00.803Z,14.56359863
2022-10-24T18:50:02.003Z,14.57366943
2022-10-24T18:51:02.435Z,14.56359863
2022-10-24T18:52:02.906Z,14.56359863
2022-10-24T18:53:03.312Z,14.53338623
2022-10-24T18:54:03.766Z,14.46289063
2022-10-24T18:55:05.275Z,14.46289063
2022-10-24T18:56:05.941Z,14.46289063
2022-10-24T18:57:06.746Z,14.42260742
2022-10-24T18:58:07.387Z,14.42260742
2022-10-24T18:59:08.507Z,14.39239502
2022-10-24T19:00:08.991Z,14.38232422
2022-10-24T19:01:09.765Z,14.35211182
2022-10-24T19:02:10.579Z,14.31182861
2022-10-24T19:03:11.046Z,14.30175781
2022-10-24T19:04:12.493Z,14.23126221
2022-10-24T19:05:43.287Z,14.21112061
2022-10-24T19:06:44.086Z,14.21112061
2022-10-24T19:07:45.076Z,14.21112061
2022-10-24T19:08:46.000Z,14.21112061
2022-10-24T19:09:46.466Z,14.21112061
2022-10-24T19:10:46.966Z,14.2010498
2022-10-24T19:11:47.663Z,14.21112061
2022-10-24T19:12:48.630Z,14.23126221
2022-10-24T19:13:49.196Z,14.2010498
2022-10-24T19:14:49.733Z,14.2010498
2022-10-24T19:15:50.616Z,14.190979
2022-10-24T19:16:51.147Z,14.1708374
2022-10-24T19:17:51.843Z,14.1708374
2022-10-24T19:18:53.059Z,14.1708374
2022-10-24T19:19:53.532Z,14.1204834
2022-10-24T19:20:53.958Z,14.0802002
2022-10-24T19:21:54.422Z,14.03991699
2022-10-24T19:22:54.980Z,14.03991699
2022-10-24T19:23:55.496Z,14.01977539
2022-10-24T19:24:56.727Z,13.98956299
2022-10-24T19:25:57.241Z,13.89892578
2022-10-24T19:26:57.822Z,13.82843018
2022-10-24T19:27:58.474Z,13.78814697
2022-10-24T19:29:02.341Z,13.78814697
2022-10-24T19:30:00.589Z,13.78814697
2022-10-24T19:31:01.159Z,13.78814697
2022-10-24T19:32:01.643Z,13.80828857
2022-10-24T19:33:02.279Z,13.78814697
2022-10-24T19:34:02.912Z,13.79821777
2022-10-24T19:35:03.542Z,13.82843018
2022-10-24T19:36:04.140Z,13.85864258
2022-10-24T19:37:04.634Z,13.89892578
2022-10-24T19:38:05.233Z,13.90899658
2022-10-24T19:39:06.525Z,13.92913818
2022-10-24T19:40:07.096Z,13.92913818
2022-10-24T19:41:07.739Z,13.92913818
2022-10-24T19:42:08.259Z,13.93920898
2022-10-24T19:43:09.242Z,13.93920898
2022-10-24T19:44:09.687Z,13.93920898
2022-10-24T19:45:10.450Z,13.95935059
2022-10-24T19:46:19.896Z,13.98956299
2022-10-24T19:47:11.636Z,14.01977539
2022-10-24T19:48:42.784Z,14.04998779
2022-10-24T19:49:44.280Z,14.03991699
2022-10-24T19:50:44.854Z,14.03991699
2022-10-24T19:51:45.548Z,14.01977539
2022-10-24T19:52:46.080Z,13.98956299
2022-10-24T19:53:46.672Z,14.00970459
2022-10-24T19:54:48.017Z,14.00970459
2022-10-24T19:55:48.583Z,13.97949219
2022-10-24T19:56:49.071Z,13.93920898
2022-10-24T19:57:49.721Z,13.90899658
2022-10-24T19:58:51.033Z,13.87878418
2022-10-24T19:59:51.469Z,13.90899658
2022-10-24T20:00:52.948Z,13.89892578
2022-10-24T20:01:53.615Z,13.90899658
2022-10-24T20:02:53.907Z,13.89892578
2022-10-24T20:03:54.405Z,13.87878418
2022-10-24T20:04:54.880Z,13.83850098
2022-10-24T20:05:55.360Z,13.85864258
2022-10-24T20:06:55.995Z,13.83850098
2022-10-24T20:07:56.599Z,13.82843018
2022-10-24T20:08:57.138Z,13.80828857
2022-10-24T20:09:58.210Z,13.82843018
2022-10-24T20:10:58.683Z,13.79821777
2022-10-24T20:11:59.217Z,13.78814697
2022-10-24T20:12:59.752Z,13.75793457
2022-10-24T20:14:00.318Z,13.75793457
2022-10-24T20:15:00.937Z,13.78814697
2022-10-24T20:16:01.409Z,13.78814697
2022-10-24T20:17:01.922Z,13.79821777
2022-10-24T20:18:02.523Z,13.74786377
2022-10-24T20:19:03.269Z,13.72772217
2022-10-24T20:20:04.772Z,13.71765137
2022-10-24T20:21:05.384Z,13.70758057
2022-10-24T20:22:06.046Z,13.65722656
2022-10-24T20:23:06.722Z,13.67736816
2022-10-24T20:24:07.337Z,13.65722656
2022-10-24T20:25:07.913Z,13.65722656
2022-10-24T20:26:08.402Z,13.65722656
2022-10-24T20:27:08.941Z,13.64715576
2022-10-24T20:28:09.403Z,13.64715576
2022-10-24T20:29:10.039Z,13.64715576
2022-10-24T20:30:11.746Z,13.60687256
2022-10-24T20:31:42.470Z,13.64715576
2022-10-24T20:32:43.049Z,13.62701416
2022-10-24T20:33:43.491Z,13.61694336
2022-10-24T20:34:44.036Z,13.62701416
2022-10-24T20:35:44.506Z,13.62701416
2022-10-24T20:36:45.033Z,13.58673096
2022-10-24T20:37:45.917Z,13.56658936
2022-10-24T20:38:47.003Z,13.53637695
2022-10-24T20:39:48.597Z,13.56658936
2022-10-24T20:40:49.148Z,13.56658936
2022-10-24T20:41:53.231Z,13.56658936
2022-10-24T20:42:50.507Z,13.54644775
2022-10-24T20:43:51.038Z,13.54644775
2022-10-24T20:44:51.585Z,13.53637695
2022-10-24T20:45:52.095Z,13.53637695
2022-10-24T20:46:52.776Z,13.54644775
2022-10-24T20:47:53.331Z,13.52630615
2022-10-24T20:48:54.519Z,13.50616455
2022-10-24T20:49:55.070Z,13.47595215
2022-10-24T20:50:56.315Z,13.47595215
2022-10-24T20:51:57.033Z,13.47595215
2022-10-24T20:52:57.632Z,13.46588135
2022-10-24T20:53:58.157Z,13.46588135
2022-10-24T20:54:59.496Z,13.43566895
2022-10-24T20:55:59.988Z,13.42559814
2022-10-24T20:57:00.515Z,13.40545654
2022-10-24T20:58:01.018Z,13.40545654
2022-10-24T20:59:01.576Z,13.38531494
2022-10-24T21:00:02.790Z,13.38531494
2022-10-24T21:01:03.346Z,13.38531494
2022-10-24T21:02:03.971Z,13.37524414
2022-10-24T21:03:04.245Z,13.38531494
2022-10-24T21:04:04.875Z,13.38531494
2022-10-24T21:05:05.273Z,13.42559814
2022-10-24T21:06:05.730Z,13.45581055
2022-10-24T21:07:06.344Z,13.45581055
2022-10-24T21:08:06.950Z,13.47595215
2022-10-24T21:09:07.359Z,13.47595215
2022-10-24T21:10:08.750Z,13.50616455
2022-10-24T21:11:09.170Z,13.50616455
2022-10-24T21:12:09.648Z,13.50616455
2022-10-24T21:13:10.164Z,13.50616455
2022-10-24T21:14:10.695Z,13.46588135
2022-10-24T21:15:41.569Z,13.46588135
2022-10-24T21:16:42.018Z,13.42559814
2022-10-24T21:17:42.553Z,13.38531494
2022-10-24T21:18:43.050Z,13.40545654
2022-10-24T21:19:44.574Z,13.37524414
2022-10-24T21:20:45.035Z,13.40545654
2022-10-24T21:21:45.527Z,13.37524414
2022-10-24T21:22:46.023Z,13.35510254
2022-10-24T21:23:46.490Z,13.34503174
2022-10-24T21:24:47.627Z,13.34503174
2022-10-24T21:25:48.080Z,13.32489014
2022-10-24T21:26:48.515Z,13.32489014
2022-10-24T21:27:49.201Z,13.32489014
2022-10-24T21:28:49.497Z,13.31481934
2022-10-24T21:29:50.733Z,13.31481934
2022-10-24T21:30:52.022Z,13.28460693
2022-10-24T21:31:52.449Z,13.27453613
2022-10-24T21:32:52.991Z,13.24432373
2022-10-24T21:33:53.566Z,13.24432373
2022-10-24T21:34:53.998Z,13.24432373
2022-10-24T21:35:54.509Z,13.22418213
2022-10-24T21:36:54.955Z,13.25439453
2022-10-24T21:37:55.420Z,13.22418213
2022-10-24T21:38:56.502Z,13.22418213
2022-10-24T21:39:57.537Z,13.21411133
2022-10-24T21:40:58.040Z,13.21411133
2022-10-24T21:41:58.514Z,13.21411133
2022-10-24T21:42:58.947Z,13.21411133
2022-10-24T21:43:59.387Z,13.24432373
2022-10-24T21:44:59.861Z,13.27453613
2022-10-24T21:46:00.383Z,13.28460693
2022-10-24T21:47:00.888Z,13.29467773
2022-10-24T21:48:01.346Z,13.28460693
2022-10-24T21:49:01.784Z,13.29467773
2022-10-24T21:50:03.059Z,13.28460693
2022-10-24T21:51:03.557Z,13.27453613
2022-10-24T21:52:04.054Z,13.25439453
2022-10-24T21:53:04.528Z,13.24432373
2022-10-24T21:54:04.985Z,13.24432373
2022-10-24T21:55:06.052Z,13.24432373
2022-10-24T21:56:06.563Z,13.24432373
2022-10-24T21:57:07.080Z,13.22418213
2022-10-24T21:58:07.513Z,13.22418213
2022-10-24T21:59:07.972Z,13.19396973
2022-10-24T22:00:09.023Z,13.19396973
2022-10-24T22:01:09.540Z,13.19396973
2022-10-24T22:02:10.067Z,13.19396973
2022-10-24T22:03:40.938Z,13.19396973
2022-10-24T22:04:42.227Z,13.17382813
2022-10-24T22:05:42.673Z,13.16375732
2022-10-24T22:06:43.195Z,13.17382813
2022-10-24T22:07:46.181Z,13.17382813
2022-10-24T22:08:44.154Z,13.16375732
2022-10-24T22:09:44.661Z,13.21411133
2022-10-24T22:10:45.768Z,13.24432373
2022-10-24T22:11:46.262Z,13.28460693
2022-10-24T22:12:46.802Z,13.28460693
2022-10-24T22:13:47.309Z,13.29467773
2022-10-24T22:14:47.804Z,13.24432373
2022-10-24T22:15:48.298Z,13.21411133
2022-10-24T22:16:48.749Z,13.13354492
2022-10-24T22:17:49.327Z,13.10333252
2022-10-24T22:18:49.778Z,13.07312012
2022-10-24T22:19:50.477Z,13.07312012
2022-10-24T22:20:51.742Z,13.09326172
2022-10-24T22:21:52.165Z,13.09326172
2022-10-24T22:22:52.633Z,13.10333252
2022-10-24T22:23:53.221Z,13.13354492
2022-10-24T22:24:53.640Z,13.12347412
2022-10-24T22:25:54.265Z,13.13354492
2022-10-24T22:26:54.694Z,13.06304932
2022-10-24T22:27:55.116Z,13.07312012
2022-10-24T22:28:55.534Z,13.06304932
2022-10-24T22:29:56.053Z,13.03283691
2022-10-24T22:30:57.274Z,12.96234131
2022-10-24T22:31:57.757Z,12.94219971
2022-10-24T22:32:58.183Z,12.8918457
2022-10-24T22:33:58.603Z,12.8717041
2022-10-24T22:34:59.107Z,12.7911377
2022-10-24T22:35:59.659Z,12.76092529
2022-10-24T22:37:00.152Z,12.77099609
2022-10-24T22:38:00.602Z,12.76092529
2022-10-24T22:39:01.084Z,12.73071289
2022-10-24T22:40:01.629Z,12.74078369
2022-10-24T22:41:02.783Z,12.74078369
2022-10-24T22:42:03.372Z,12.74078369
2022-10-24T22:43:03.934Z,12.74078369
2022-10-24T22:44:04.405Z,12.77099609
2022-10-24T22:45:04.858Z,12.76092529
2022-10-24T22:46:05.373Z,12.8012085
2022-10-24T22:47:05.855Z,12.8414917
2022-10-24T22:48:06.477Z,12.8717041
2022-10-24T22:49:07.002Z,12.8918457
2022-10-24T22:50:08.034Z,12.92205811
2022-10-24T22:51:08.718Z,12.92205811
2022-10-24T22:52:09.295Z,12.96234131
2022-10-24T22:53:40.412Z,12.98248291
2022-10-24T22:54:41.738Z,13.01269531
2022-10-24T22:55:42.217Z,13.07312012
2022-10-24T22:56:42.812Z,13.04290771
2022-10-24T22:57:43.316Z,13.06304932
2022-10-24T22:58:43.734Z,13.06304932
2022-10-24T22:59:44.189Z,13.07312012
2022-10-24T23:00:45.252Z,13.09326172
2022-10-24T23:01:45.766Z,13.09326172
2022-10-24T23:02:46.685Z,13.09326172
2022-10-24T23:03:46.665Z,13.10333252
2022-10-24T23:04:47.752Z,13.12347412
2022-10-24T23:05:48.320Z,13.12347412
2022-10-24T23:06:48.704Z,13.12347412
2022-10-24T23:07:49.458Z,13.10333252
2022-10-24T23:08:49.675Z,13.12347412
2022-10-24T23:09:50.545Z,13.12347412
2022-10-24T23:10:51.781Z,13.12347412
2022-10-24T23:11:52.279Z,13.10333252
2022-10-24T23:12:52.696Z,13.07312012
2022-10-24T23:13:53.191Z,13.04290771
2022-10-24T23:14:53.810Z,13.03283691
2022-10-24T23:15:54.355Z,13.01269531
2022-10-24T23:16:54.918Z,13.01269531
2022-10-24T23:17:55.438Z,12.99255371
2022-10-24T23:18:56.741Z,13.03283691
2022-10-24T23:19:57.248Z,13.01269531
2022-10-24T23:20:58.294Z,13.03283691
2022-10-24T23:21:58.765Z,13.01269531
2022-10-24T23:23:09.470Z,12.99255371
2022-10-24T23:23:59.668Z,13.01269531
2022-10-24T23:25:00.167Z,12.99255371
2022-10-24T23:26:01.507Z,12.99255371
2022-10-24T23:27:01.994Z,13.01269531
2022-10-24T23:28:02.474Z,13.04290771
2022-10-24T23:29:02.873Z,13.03283691
2022-10-24T23:30:03.400Z,13.01269531
2022-10-24T23:31:04.768Z,12.98248291
2022-10-24T23:32:05.251Z,12.96234131
2022-10-24T23:33:05.704Z,12.98248291
2022-10-24T23:34:06.118Z,13.01269531
2022-10-24T23:35:06.722Z,13.03283691
2022-10-24T23:36:07.213Z,13.03283691
2022-10-24T23:37:07.735Z,13.01269531
2022-10-24T23:38:08.241Z,12.98248291
2022-10-24T23:39:08.743Z,12.99255371
2022-10-24T23:40:40.533Z,12.99255371
2022-10-24T23:41:41.109Z,12.99255371
2022-10-24T23:42:41.565Z,12.99255371
2022-10-24T23:43:42.119Z,12.99255371
2022-10-24T23:44:42.548Z,13.03283691
2022-10-24T23:45:42.978Z,13.01269531
2022-10-24T23:46:43.485Z,13.04290771
2022-10-24T23:47:44.003Z,13.04290771
2022-10-24T23:48:44.457Z,13.07312012
2022-10-24T23:49:44.890Z,13.07312012
2022-10-24T23:50:45.334Z,13.04290771
2022-10-24T23:51:45.778Z,13.03283691
2022-10-24T23:52:46.798Z,13.01269531
2022-10-24T23:53:46.933Z,12.99255371
2022-10-24T23:54:47.397Z,12.99255371
2022-10-24T23:55:48.800Z,12.96234131
2022-10-24T23:56:49.207Z,12.98248291
2022-10-24T23:57:49.645Z,12.98248291